createdAt,value
2022-10-16T00:01:30.541Z,99927.83
2022-10-16T00:03:58.928Z,99930.64
2022-10-16T00:06:26.506Z,99936.86
2022-10-16T00:08:53.173Z,99933.73
2022-10-16T00:11:22.428Z,99931.74
2022-10-16T00:13:51.623Z,99926.93
2022-10-16T00:16:18.442Z,99921.17
2022-10-16T00:18:44.983Z,99922.58
2022-10-16T00:21:14.887Z,99919.23
2022-10-16T00:23:41.792Z,99921.06
2022-10-16T00:26:11.166Z,99925.27
2022-10-16T00:28:37.945Z,99929.91
2022-10-16T00:31:11.808Z,99931.83
2022-10-16T00:33:39.781Z,99934.91
2022-10-16T00:36:09.901Z,99931.05
2022-10-16T00:38:37.969Z,99935.69
2022-10-16T00:41:05.724Z,99933.09
2022-10-16T00:43:56.841Z,99934.16
2022-10-16T00:46:40.140Z,99942.27
2022-10-16T00:49:10.361Z,99946.35
2022-10-16T00:51:43.697Z,99946.52
2022-10-16T00:54:23.131Z,99942.76
2022-10-16T00:56:51.015Z,99937.27
2022-10-16T00:59:24.918Z,99949.77
2022-10-16T01:01:52.437Z,99951.98
2022-10-16T01:04:19.133Z,99953.16
2022-10-16T01:06:57.379Z,99954.50
2022-10-16T01:09:36.585Z,99961.94
2022-10-16T01:12:38.425Z,99959.29
2022-10-16T01:15:30.269Z,99955.00
2022-10-16T01:18:11.618Z,99959.39
2022-10-16T01:20:46.055Z,99963.99
2022-10-16T01:23:37.525Z,99965.27
2022-10-16T01:26:35.695Z,99963.29
2022-10-16T01:29:09.556Z,99962.41
2022-10-16T01:31:41.397Z,99959.77
2022-10-16T01:34:19.324Z,99964.25
2022-10-16T01:36:56.678Z,99962.90
2022-10-16T01:39:28.827Z,99961.83
2022-10-16T01:42:01.687Z,99962.30
2022-10-16T01:44:36.837Z,99961.91
2022-10-16T01:47:04.748Z,99964.71
2022-10-16T01:49:35.649Z,99960.44
2022-10-16T01:52:09.688Z,99955.17
2022-10-16T01:54:38.492Z,99953.84
2022-10-16T01:57:07.957Z,99953.08
2022-10-16T01:59:44.433Z,99957.95
2022-10-16T02:02:11.918Z,99960.45
2022-10-16T02:04:43.353Z,99960.05
2022-10-16T02:07:11.307Z,99957.73
2022-10-16T02:09:38.473Z,99957.93
2022-10-16T02:12:31.314Z,99959.03
2022-10-16T02:14:57.971Z,99962.29
2022-10-16T02:17:24.885Z,99960.61
2022-10-16T02:19:54.603Z,99964.01
2022-10-16T02:22:27.962Z,99965.21
2022-10-16T02:24:59.925Z,99969.20
2022-10-16T02:27:42.213Z,99970.07
2022-10-16T02:30:19.846Z,99971.21
2022-10-16T02:32:49.371Z,99968.33
2022-10-16T02:35:18.773Z,99967.52
2022-10-16T02:37:46.739Z,99972.77
2022-10-16T02:40:14.823Z,99969.22
2022-10-16T02:42:41.269Z,99971.77
2022-10-16T02:45:09.954Z,99977.95
2022-10-16T02:47:36.565Z,99979.98
2022-10-16T02:50:03.904Z,99977.20
2022-10-16T02:52:30.197Z,99974.84
2022-10-16T02:54:56.474Z,99971.80
2022-10-16T02:57:23.536Z,99964.98
2022-10-16T02:59:50.083Z,99967.19
2022-10-16T03:02:16.806Z,99965.23
2022-10-16T03:04:43.081Z,99962.74
2022-10-16T03:07:09.404Z,99962.37
2022-10-16T03:09:35.717Z,99965.64
2022-10-16T03:12:02.394Z,99971.52
2022-10-16T03:16:54.967Z,99963.13
2022-10-16T03:19:21.339Z,99962.25
2022-10-16T03:21:47.580Z,99968.80
2022-10-16T03:24:13.872Z,99963.69
2022-10-16T03:26:40.134Z,99957.14
2022-10-16T03:29:07.067Z,99964.19
2022-10-16T03:31:33.421Z,99965.89
2022-10-16T03:33:59.653Z,99965.53
2022-10-16T03:36:25.979Z,99964.46
2022-10-16T03:38:52.276Z,99967.66
2022-10-16T03:41:18.518Z,99970.30
2022-10-16T03:43:44.734Z,99980.34
2022-10-16T03:46:10.972Z,99982.04
2022-10-16T03:48:37.265Z,99979.15
2022-10-16T03:51:03.529Z,99985.16
2022-10-16T03:53:29.805Z,99988.52
2022-10-16T03:55:56.103Z,99994.91
2022-10-16T03:58:22.930Z,99993.23
2022-10-16T04:00:49.260Z,99995.35
2022-10-16T04:03:16.133Z,99997.29
2022-10-16T04:05:42.427Z,99993.51
2022-10-16T04:08:08.749Z,99996.55
2022-10-16T04:10:35.018Z,99990.43
2022-10-16T04:13:01.329Z,99995.52
2022-10-16T04:15:27.663Z,99993.77
2022-10-16T04:17:54.243Z,99995.48
2022-10-16T04:20:20.805Z,99999.83
2022-10-16T04:22:47.145Z,100002.32
2022-10-16T04:25:14.580Z,100001.90
2022-10-16T04:27:43.605Z,100001.96
2022-10-16T04:30:13.181Z,100001.93
2022-10-16T04:32:39.829Z,100006.72
2022-10-16T04:35:06.549Z,100005.98
2022-10-16T04:37:32.984Z,100007.52
2022-10-16T04:39:59.303Z,100005.61
2022-10-16T04:42:25.949Z,100009.05
2022-10-16T04:44:52.241Z,100005.48
2022-10-16T04:47:18.848Z,100005.92
2022-10-16T04:49:45.066Z,100007.30
2022-10-16T04:52:11.289Z,100005.70
2022-10-16T04:54:37.503Z,100001.65
2022-10-16T04:57:05.107Z,99995.66
2022-10-16T04:59:31.338Z,99992.33
2022-10-16T05:01:57.629Z,99987.73
2022-10-16T05:04:24.022Z,99991.99
2022-10-16T05:06:50.309Z,99992.50
2022-10-16T05:09:16.799Z,99991.29
2022-10-16T05:11:43.045Z,99989.41
2022-10-16T05:16:35.526Z,99995.14
2022-10-16T05:19:26.292Z,100007.24
2022-10-16T05:21:48.065Z,100011.44
2022-10-16T05:24:14.466Z,100016.48
2022-10-16T05:26:40.696Z,100023.72
2022-10-16T05:29:07.035Z,100024.41
2022-10-16T05:31:33.453Z,100019.61
2022-10-16T05:34:00.824Z,100021.13
2022-10-16T05:36:27.865Z,100025.30
2022-10-16T05:38:54.301Z,100030.02
2022-10-16T05:41:22.007Z,100028.98
2022-10-16T05:43:49.139Z,100033.19
2022-10-16T05:46:16.596Z,100033.11
2022-10-16T05:48:43.104Z,100026.61
2022-10-16T05:51:12.119Z,100030.63
2022-10-16T05:53:40.034Z,100036.92
2022-10-16T05:56:09.046Z,100034.59
2022-10-16T05:58:37.359Z,100040.02
2022-10-16T06:01:07.343Z,100036.99
2022-10-16T06:03:34.708Z,100037.44
2022-10-16T06:06:12.577Z,100036.08
2022-10-16T06:08:40.567Z,100036.46
2022-10-16T06:11:13.774Z,100048.48
2022-10-16T06:13:42.690Z,100052.15
2022-10-16T06:16:10.951Z,100056.89
2022-10-16T06:18:37.202Z,100061.08
2022-10-16T06:21:12.405Z,100063.78
2022-10-16T06:23:38.709Z,100074.11
2022-10-16T06:26:10.325Z,100083.96
2022-10-16T06:28:37.092Z,100096.31
2022-10-16T06:31:08.107Z,100095.22
2022-10-16T06:33:35.937Z,100093.72
2022-10-16T06:36:03.960Z,100091.18
2022-10-16T06:38:30.994Z,100084.88
2022-10-16T06:40:57.906Z,100082.45
2022-10-16T06:43:24.541Z,100080.33
2022-10-16T06:45:55.799Z,100084.20
2022-10-16T06:48:23.741Z,100080.41
2022-10-16T06:51:08.703Z,100077.86
2022-10-16T06:53:39.730Z,100082.75
2022-10-16T06:56:18.469Z,100087.55
2022-10-16T06:58:45.430Z,100087.23
2022-10-16T07:01:12.582Z,100090.52
2022-10-16T07:03:40.965Z,100088.70
2022-10-16T07:06:09.186Z,100082.35
2022-10-16T07:08:37.720Z,100086.45
2022-10-16T07:11:07.320Z,100088.56
2022-10-16T07:13:35.408Z,100092.75
2022-10-16T07:16:18.835Z,100099.34
2022-10-16T07:18:46.826Z,100108.55
2022-10-16T07:21:14.634Z,100116.38
2022-10-16T07:23:41.652Z,100117.21
2022-10-16T07:26:08.347Z,100113.20
2022-10-16T07:28:34.670Z,100112.70
2022-10-16T07:31:13.517Z,100109.32
2022-10-16T07:33:43.419Z,100107.73
2022-10-16T07:36:15.219Z,100108.56
2022-10-16T07:38:43.327Z,100106.34
2022-10-16T07:41:12.498Z,100111.50
2022-10-16T07:43:39.650Z,100120.46
2022-10-16T07:46:06.677Z,100123.27
2022-10-16T07:48:34.606Z,100130.14
2022-10-16T07:51:02.610Z,100132.54
2022-10-16T07:53:28.858Z,100134.98
2022-10-16T07:56:00.167Z,100129.19
2022-10-16T07:58:28.631Z,100129.13
2022-10-16T08:00:56.407Z,100126.30
2022-10-16T08:03:23.764Z,100132.88
2022-10-16T08:05:50.439Z,100138.86
2022-10-16T08:08:18.545Z,100147.05
2022-10-16T08:10:45.513Z,100145.71
2022-10-16T08:13:15.020Z,100150.33
2022-10-16T08:15:45.638Z,100146.38
2022-10-16T08:18:14.314Z,100149.13
2022-10-16T08:20:41.666Z,100150.09
2022-10-16T08:23:11.487Z,100154.05
2022-10-16T08:25:40.290Z,100154.00
2022-10-16T08:28:08.551Z,100146.30
2022-10-16T08:30:35.637Z,100143.68
2022-10-16T08:33:02.952Z,100145.96
2022-10-16T08:35:29.299Z,100153.83
2022-10-16T08:37:55.810Z,100153.48
2022-10-16T08:40:28.520Z,100144.73
2022-10-16T08:43:27.687Z,100148.83
2022-10-16T08:46:21.580Z,100167.40
2022-10-16T08:48:51.565Z,100165.52
2022-10-16T08:51:28.428Z,100168.12
2022-10-16T08:54:04.559Z,100166.58
2022-10-16T08:56:31.139Z,100166.48
2022-10-16T08:59:01.547Z,100172.31
2022-10-16T09:01:40.937Z,100173.83
2022-10-16T09:04:39.089Z,100177.93
2022-10-16T09:07:16.720Z,100173.56
2022-10-16T09:10:02.073Z,100179.23
2022-10-16T09:12:34.508Z,100179.93
2022-10-16T09:15:31.900Z,100175.30
2022-10-16T09:18:32.626Z,100167.13
2022-10-16T09:21:15.351Z,100162.84
2022-10-16T09:23:41.705Z,100168.19
2022-10-16T09:26:14.348Z,100163.77
2022-10-16T09:28:41.829Z,100169.81
2022-10-16T09:31:18.620Z,100170.65
2022-10-16T09:33:50.768Z,100171.73
2022-10-16T09:36:17.194Z,100176.24
2022-10-16T09:38:43.412Z,100176.02
2022-10-16T09:41:17.939Z,100173.81
2022-10-16T09:44:02.015Z,100165.73
2022-10-16T09:46:31.627Z,100161.33
2022-10-16T09:49:04.432Z,100161.04
2022-10-16T09:51:35.564Z,100165.45
2022-10-16T09:54:08.667Z,100166.00
2022-10-16T09:56:37.047Z,100174.63
2022-10-16T09:59:12.438Z,100178.17
2022-10-16T10:01:46.357Z,100180.27
2022-10-16T10:04:13.448Z,100182.88
2022-10-16T10:06:48.094Z,100179.73
2022-10-16T10:09:17.465Z,100176.16
2022-10-16T10:14:37.615Z,100172.60
2022-10-16T10:17:06.889Z,100167.49
2022-10-16T10:19:44.983Z,100175.17
2022-10-16T10:22:25.626Z,100176.41
2022-10-16T10:25:18.567Z,100178.29
2022-10-16T10:28:03.452Z,100179.17
2022-10-16T10:30:45.675Z,100182.07
2022-10-16T10:33:27.349Z,100177.23
2022-10-16T10:36:25.604Z,100176.64
2022-10-16T10:38:57.575Z,100175.55
2022-10-16T10:41:40.905Z,100179.81
2022-10-16T10:44:39.611Z,100183.14
2022-10-16T10:47:21.876Z,100178.90
2022-10-16T10:50:03.103Z,100180.23
2022-10-16T10:52:45.449Z,100180.95
2022-10-16T10:55:30.535Z,100180.90
2022-10-16T10:58:13.753Z,100178.44
2022-10-16T11:00:39.989Z,100181.76
2022-10-16T11:03:24.183Z,100175.82
2022-10-16T11:05:57.130Z,100174.45
2022-10-16T11:08:31.737Z,100172.06
2022-10-16T11:11:02.598Z,100183.75
2022-10-16T11:13:47.845Z,100182.17
2022-10-16T11:16:22.775Z,100175.20
2022-10-16T11:19:19.886Z,100176.73
2022-10-16T11:22:09.283Z,100178.95
2022-10-16T11:24:46.258Z,100176.12
2022-10-16T11:27:17.963Z,100167.55
2022-10-16T11:29:57.372Z,100166.23
2022-10-16T11:32:39.566Z,100172.12
2022-10-16T11:35:18.400Z,100174.86
2022-10-16T11:37:49.601Z,100171.73
2022-10-16T11:40:34.743Z,100174.38
2022-10-16T11:43:33.249Z,100179.08
2022-10-16T11:46:07.731Z,100174.93
2022-10-16T11:48:55.628Z,100178.66
2022-10-16T11:51:42.579Z,100188.83
2022-10-16T11:54:26.726Z,100184.11
2022-10-16T11:57:00.010Z,100185.67
2022-10-16T11:59:41.386Z,100184.16
2022-10-16T12:02:39.603Z,100188.10
2022-10-16T12:05:19.983Z,100195.45
2022-10-16T12:08:01.031Z,100192.27
2022-10-16T12:10:31.930Z,100198.45
2022-10-16T12:12:58.290Z,100204.67
2022-10-16T12:18:24.933Z,100213.12
2022-10-16T12:21:01.039Z,100211.23
2022-10-16T12:23:27.356Z,100211.56
2022-10-16T12:25:56.532Z,100207.13
2022-10-16T12:28:28.230Z,100202.45
2022-10-16T12:31:00.877Z,100204.77
2022-10-16T12:33:33.632Z,100209.06
2022-10-16T12:36:04.058Z,100209.48
2022-10-16T12:38:46.261Z,100205.27
2022-10-16T12:41:14.871Z,100207.73
2022-10-16T12:43:46.504Z,100211.60
2022-10-16T12:46:12.722Z,100205.50
2022-10-16T12:48:48.729Z,100195.79
2022-10-16T12:51:24.467Z,100190.13
2022-10-16T12:54:15.958Z,100194.65
2022-10-16T12:57:14.174Z,100198.23
2022-10-16T13:00:16.680Z,100197.10
2022-10-16T13:03:02.708Z,100208.30
2022-10-16T13:05:49.848Z,100213.80
2022-10-16T13:08:40.221Z,100211.57
2022-10-16T13:11:26.102Z,100210.82
2022-10-16T13:14:28.574Z,100208.77
2022-10-16T13:17:04.504Z,100207.80
2022-10-16T13:19:43.319Z,100202.61
2022-10-16T13:22:28.536Z,100209.04
2022-10-16T13:25:26.706Z,100220.04
2022-10-16T13:28:12.946Z,100225.95
2022-10-16T13:30:44.910Z,100228.35
2022-10-16T13:33:19.713Z,100235.34
2022-10-16T13:35:57.203Z,100231.45
2022-10-16T13:38:27.262Z,100225.35
2022-10-16T13:40:53.517Z,100229.00
2022-10-16T13:43:41.250Z,100229.04
2022-10-16T13:46:12.270Z,100223.64
2022-10-16T13:48:38.554Z,100227.48
2022-10-16T13:51:14.575Z,100236.91
2022-10-16T13:53:42.086Z,100236.51
2022-10-16T13:56:13.167Z,100234.48
2022-10-16T13:58:40.168Z,100237.34
2022-10-16T14:01:20.242Z,100239.76
2022-10-16T14:03:48.221Z,100243.73
2022-10-16T14:06:18.134Z,100245.27
2022-10-16T14:08:49.143Z,100246.55
2022-10-16T14:11:24.498Z,100247.30
2022-10-16T14:13:51.948Z,100254.52
2022-10-16T14:16:22.027Z,100261.19
2022-10-16T14:19:10.620Z,100268.20
2022-10-16T14:21:40.600Z,100278.71
2022-10-16T14:24:23.554Z,100272.06
2022-10-16T14:26:51.267Z,100272.06
2022-10-16T14:29:20.007Z,100272.20
2022-10-16T14:32:04.150Z,100273.11
2022-10-16T14:34:36.303Z,100283.90
2022-10-16T14:37:26.612Z,100288.52
2022-10-16T14:39:55.881Z,100291.15
2022-10-16T14:42:25.407Z,100293.55
2022-10-16T14:44:53.903Z,100301.26
2022-10-16T14:47:26.867Z,100298.99
2022-10-16T14:49:59.267Z,100297.75
2022-10-16T14:52:25.589Z,100304.20
2022-10-16T14:54:54.997Z,100311.29
2022-10-16T14:57:25.204Z,100309.83
2022-10-16T14:59:51.865Z,100301.66
2022-10-16T15:02:20.938Z,100304.94
2022-10-16T15:04:48.516Z,100303.87
2022-10-16T15:07:15.335Z,100307.59
2022-10-16T15:09:46.440Z,100307.41
2022-10-16T15:12:16.691Z,100309.30
2022-10-16T15:14:43.623Z,100307.09
2022-10-16T15:17:11.265Z,100305.35
2022-10-16T15:19:37.947Z,100299.96
2022-10-16T15:22:04.289Z,100302.31
2022-10-16T15:24:30.605Z,100302.92
2022-10-16T15:26:56.897Z,100305.52
2022-10-16T15:29:23.384Z,100305.91
2022-10-16T15:31:49.713Z,100300.99
2022-10-16T15:34:16.442Z,100302.10
2022-10-16T15:36:42.736Z,100304.61
2022-10-16T15:39:16.262Z,100332.84
2022-10-16T15:41:43.537Z,100330.17
2022-10-16T15:44:09.980Z,100321.31
2022-10-16T15:46:37.436Z,100325.44
2022-10-16T15:49:03.719Z,100322.63
2022-10-16T15:51:30.270Z,100321.55
2022-10-16T15:53:57.222Z,100320.36
2022-10-16T15:56:25.602Z,100322.92
2022-10-16T15:58:53.790Z,100334.13
2022-10-16T16:01:20.157Z,100336.83
2022-10-16T16:03:46.431Z,100344.10
2022-10-16T16:06:14.277Z,100346.19
2022-10-16T16:08:41.229Z,100348.38
2022-10-16T16:11:10.857Z,100355.88
2022-10-16T16:13:38.629Z,100355.98
2022-10-16T16:16:13.663Z,100359.79
2022-10-16T16:18:40.482Z,100368.46
2022-10-16T16:21:07.828Z,100371.33
2022-10-16T16:23:35.197Z,100371.65
2022-10-16T16:26:06.075Z,100378.05
2022-10-16T16:28:32.721Z,100383.23
2022-10-16T16:30:59.033Z,100380.36
2022-10-16T16:33:25.631Z,100380.67
2022-10-16T16:35:57.771Z,100387.05
2022-10-16T16:38:24.027Z,100390.17
2022-10-16T16:40:54.100Z,100393.17
2022-10-16T16:43:27.075Z,100391.46
2022-10-16T16:45:54.685Z,100395.04
2022-10-16T16:48:22.104Z,100395.23
2022-10-16T16:50:48.580Z,100396.63
2022-10-16T16:53:14.889Z,100400.20
2022-10-16T16:55:41.224Z,100402.95
2022-10-16T16:58:07.583Z,100406.80
2022-10-16T17:00:33.837Z,100408.75
2022-10-16T17:03:00.417Z,100405.44
2022-10-16T17:05:26.744Z,100405.58
2022-10-16T17:07:53.042Z,100408.92
2022-10-16T17:10:19.317Z,100405.47
2022-10-16T17:12:45.629Z,100409.80
2022-10-16T17:15:11.936Z,100413.30
2022-10-16T17:17:38.234Z,100413.08
2022-10-16T17:20:05.057Z,100410.77
2022-10-16T17:22:31.352Z,100413.17
2022-10-16T17:24:57.650Z,100420.02
2022-10-16T17:27:23.979Z,100418.57
2022-10-16T17:29:51.840Z,100417.11
2022-10-16T17:32:20.418Z,100424.20
2022-10-16T17:34:47.145Z,100425.89
2022-10-16T17:37:17.314Z,100429.00
2022-10-16T17:39:44.605Z,100429.59
2022-10-16T17:42:10.831Z,100432.05
2022-10-16T17:44:37.245Z,100434.79
2022-10-16T17:47:03.835Z,100439.30
2022-10-16T17:49:30.527Z,100439.52
2022-10-16T17:51:56.825Z,100446.08
2022-10-16T17:54:23.063Z,100444.44
2022-10-16T17:56:49.555Z,100450.58
2022-10-16T17:59:15.937Z,100451.51
2022-10-16T18:01:45.250Z,100460.21
2022-10-16T18:04:14.550Z,100463.79
2022-10-16T18:06:43.573Z,100468.41
2022-10-16T18:09:13.724Z,100472.60
2022-10-16T18:11:40.217Z,100474.98
2022-10-16T18:14:06.511Z,100477.70
2022-10-16T18:16:35.289Z,100481.83
2022-10-16T18:19:01.632Z,100487.48
2022-10-16T18:21:28.022Z,100494.46
2022-10-16T18:23:55.039Z,100494.48
2022-10-16T18:26:21.990Z,100503.33
2022-10-16T18:28:52.147Z,100499.65
2022-10-16T18:31:19.121Z,100495.08
2022-10-16T18:33:50.547Z,100498.60
2022-10-16T18:36:23.423Z,100502.52
2022-10-16T18:38:50.402Z,100505.31
2022-10-16T18:41:18.636Z,100511.03
2022-10-16T18:43:44.916Z,100517.86
2022-10-16T18:46:14.947Z,100521.98
2022-10-16T18:48:41.283Z,100521.00
2022-10-16T18:51:14.732Z,100524.59
2022-10-16T18:53:42.284Z,100527.96
2022-10-16T18:56:09.695Z,100533.37
2022-10-16T18:58:37.578Z,100536.02
2022-10-16T19:01:06.439Z,100540.10
2022-10-16T19:03:33.325Z,100541.86
2022-10-16T19:06:01.956Z,100542.45
2022-10-16T19:08:31.403Z,100546.17
2022-10-16T19:11:16.412Z,100553.52
2022-10-16T19:13:44.559Z,100558.97
2022-10-16T19:16:21.403Z,100563.99
2022-10-16T19:18:54.397Z,100568.70
2022-10-16T19:21:23.727Z,100571.39
2022-10-16T19:23:55.371Z,100576.38
2022-10-16T19:26:22.846Z,100580.23
2022-10-16T19:28:51.085Z,100582.58
2022-10-16T19:31:21.343Z,100579.96
2022-10-16T19:33:52.483Z,100578.18
2022-10-16T19:36:24.836Z,100582.55
2022-10-16T19:38:58.200Z,100585.64
2022-10-16T19:41:25.565Z,100592.77
2022-10-16T19:43:52.557Z,100600.36
2022-10-16T19:46:22.450Z,100608.42
2022-10-16T19:48:48.720Z,100607.89
2022-10-16T19:51:18.072Z,100611.60
2022-10-16T19:53:45.675Z,100619.55
2022-10-16T19:56:14.426Z,100621.54
2022-10-16T19:58:41.191Z,100624.11
2022-10-16T20:01:07.477Z,100625.30
2022-10-16T20:03:34.961Z,100627.52
2022-10-16T20:06:05.683Z,100628.55
2022-10-16T20:08:37.076Z,100634.48
2022-10-16T20:11:05.317Z,100638.17
2022-10-16T20:13:31.917Z,100637.54
2022-10-16T20:15:58.426Z,100638.87
2022-10-16T20:18:24.788Z,100642.56
2022-10-16T20:20:51.862Z,100640.14
2022-10-16T20:23:18.986Z,100645.23
2022-10-16T20:25:45.680Z,100648.60
2022-10-16T20:28:14.470Z,100650.90
2022-10-16T20:30:43.299Z,100651.66
2022-10-16T20:33:10.806Z,100652.41
2022-10-16T20:35:42.824Z,100655.63
2022-10-16T20:38:10.285Z,100650.96
2022-10-16T20:40:38.726Z,100646.63
2022-10-16T20:43:06.137Z,100649.92
2022-10-16T20:45:32.770Z,100653.16
2022-10-16T20:47:59.033Z,100654.92
2022-10-16T20:50:29.578Z,100657.26
2022-10-16T20:52:56.788Z,100660.56
2022-10-16T20:55:23.701Z,100664.30
2022-10-16T20:57:49.932Z,100672.23
2022-10-16T21:00:17.724Z,100669.29
2022-10-16T21:02:44.439Z,100672.31
2022-10-16T21:05:10.763Z,100676.27
2022-10-16T21:07:37.005Z,100680.61
2022-10-16T21:10:03.554Z,100681.63
2022-10-16T21:12:30.179Z,100682.70
2022-10-16T21:15:13.855Z,100685.78
2022-10-16T21:17:40.616Z,100687.67
2022-10-16T21:20:07.309Z,100692.83
2022-10-16T21:22:33.502Z,100696.06
2022-10-16T21:24:59.773Z,100705.08
2022-10-16T21:27:26.008Z,100708.16
2022-10-16T21:29:53.460Z,100710.23
2022-10-16T21:32:20.393Z,100715.35
2022-10-16T21:34:47.441Z,100713.98
2022-10-16T21:37:13.780Z,100717.52
2022-10-16T21:39:40.322Z,100719.31
2022-10-16T21:42:06.550Z,100725.85
2022-10-16T21:44:32.800Z,100733.50
2022-10-16T21:46:59.025Z,100733.16
2022-10-16T21:49:25.323Z,100732.45
2022-10-16T21:51:51.690Z,100732.02
2022-10-16T21:54:21.381Z,100735.54
2022-10-16T21:56:47.813Z,100735.91
2022-10-16T21:59:14.741Z,100735.15
2022-10-16T22:01:42.377Z,100742.43
2022-10-16T22:04:14.375Z,100749.06
2022-10-16T22:06:40.626Z,100754.90
2022-10-16T22:09:07.160Z,100756.50
2022-10-16T22:11:36.710Z,100754.77
2022-10-16T22:14:15.445Z,100757.70
2022-10-16T22:16:41.784Z,100760.14
2022-10-16T22:19:09.726Z,100758.36
2022-10-16T22:21:38.620Z,100755.42
2022-10-16T22:24:06.712Z,100756.59
2022-10-16T22:26:33.702Z,100752.41
2022-10-16T22:29:00.260Z,100756.34
2022-10-16T22:31:26.616Z,100760.92
2022-10-16T22:33:58.166Z,100769.00
2022-10-16T22:36:25.529Z,100776.23
2022-10-16T22:38:52.582Z,100788.37
2022-10-16T22:41:19.910Z,100792.33
2022-10-16T22:43:47.678Z,100791.19
2022-10-16T22:46:20.701Z,100792.92
2022-10-16T22:48:46.982Z,100794.70
2022-10-16T22:51:16.763Z,100802.88
2022-10-16T22:53:47.856Z,100811.53
2022-10-16T22:56:16.736Z,100814.81
2022-10-16T22:58:43.070Z,100821.52
2022-10-16T23:01:12.991Z,100819.42
2022-10-16T23:03:39.246Z,100819.23
2022-10-16T23:06:05.703Z,100811.27
2022-10-16T23:08:32.215Z,100814.09
2022-10-16T23:11:01.302Z,100814.01
2022-10-16T23:13:28.350Z,100816.45
2022-10-16T23:15:54.690Z,100811.20
2022-10-16T23:18:20.926Z,100817.85
2022-10-16T23:20:47.138Z,100819.08
2022-10-16T23:23:13.356Z,100817.36
2022-10-16T23:25:46.242Z,100819.79
2022-10-16T23:28:16.817Z,100817.23
2022-10-16T23:30:43.151Z,100816.30
2022-10-16T23:33:09.437Z,100821.07
2022-10-16T23:35:39.959Z,100824.92
2022-10-16T23:38:06.265Z,100821.67
2022-10-16T23:40:32.656Z,100822.33
2022-10-16T23:42:58.919Z,100827.64
2022-10-16T23:45:25.135Z,100828.69
2022-10-16T23:47:51.349Z,100830.90
2022-10-16T23:50:18.326Z,100832.77
2022-10-16T23:52:44.548Z,100844.43
2022-10-16T23:55:10.782Z,100848.91
2022-10-16T23:57:37.191Z,100855.63
